Time;durP1;ratioP1;P1;durP2;ratioP2;P2;SDS_P1;SDS_P2;PMS_P1;PMS_P2;Temp;Humidity;BMP_temperature;BMP_pressure;BME280_temperature;BME280_humidity;BME280_pressure;Samples;Min_cycle;Max_cycle;Signal;HPM_P1;HPM_P2
2023/11/24 00:07:11;;;;;;;0.32;0.10;;;4.10;86.40;;;;;;25475506;23;20010;-51
2023/11/24 00:17:13;;;;;;;0.30;0.10;;;4.00;86.80;;;;;;25477745;23;20014;-50
2023/11/24 00:27:16;;;;;;;0.20;0.00;;;3.90;86.60;;;;;;25478352;23;20010;-59
2023/11/24 00:37:18;;;;;;;0.70;0.10;;;3.90;86.00;;;;;;25451937;23;20013;-53
2023/11/24 00:47:19;;;;;;;0.30;0.10;;;4.00;84.30;;;;;;25452253;23;20021;-52
2023/11/24 00:57:21;;;;;;;0.10;0.00;;;4.30;85.10;;;;;;25477804;23;20006;-59
2023/11/24 01:07:26;;;;;;;0.00;0.00;;;4.50;86.70;;;;;;25475013;23;20006;-58
2023/11/24 01:17:27;;;;;;;0.63;0.10;;;4.30;85.50;;;;;;25475552;23;20009;-47
2023/11/24 01:27:30;;;;;;;0.35;0.10;;;4.50;86.40;;;;;;25450870;23;20010;-50
2023/11/24 01:37:31;;;;;;;0.30;0.00;;;4.70;87.50;;;;;;25475766;23;20025;-46
2023/11/24 01:47:33;;;;;;;0.20;0.00;;;4.80;86.30;;;;;;25516421;23;20052;-59
2023/11/24 01:57:36;;;;;;;0.65;0.10;;;5.30;86.10;;;;;;25475107;23;20033;-51
2023/11/24 02:07:39;;;;;;;0.10;0.00;;;5.50;86.50;;;;;;25448248;23;20009;-59
2023/11/24 02:17:44;;;;;;;0.22;0.00;;;5.50;86.60;;;;;;25514820;23;20001;-58
2023/11/24 02:27:45;;;;;;;0.32;0.00;;;5.40;85.60;;;;;;25471983;23;20006;-59
2023/11/24 02:37:47;;;;;;;0.17;0.00;;;5.10;86.40;;;;;;25471518;23;20062;-50
2023/11/24 02:47:49;;;;;;;0.13;0.05;;;4.90;86.60;;;;;;25471103;23;20044;-51
2023/11/24 02:57:50;;;;;;;0.00;0.00;;;4.70;86.90;;;;;;25472694;23;20002;-59
2023/11/24 03:07:53;;;;;;;0.32;0.00;;;4.30;88.80;;;;;;25471798;23;20005;-58
2023/11/24 03:17:57;;;;;;;0.98;0.00;;;3.80;89.60;;;;;;25469810;23;20009;-59
2023/11/24 03:28:03;;;;;;;0.10;0.10;;;3.40;89.50;;;;;;25471910;23;20010;-59
2023/11/24 03:38:08;;;;;;;0.00;0.00;;;3.20;90.20;;;;;;25468272;23;20009;-51
2023/11/24 03:48:10;;;;;;;0.22;0.00;;;3.40;89.00;;;;;;25471295;23;20060;-59
2023/11/24 03:58:14;;;;;;;0.00;0.00;;;3.80;85.10;;;;;;25470956;23;20009;-52
2023/11/24 04:08:15;;;;;;;0.50;0.10;;;3.70;86.20;;;;;;25468892;23;20454;-47
2023/11/24 04:18:17;;;;;;;0.40;0.08;;;3.50;87.00;;;;;;25468902;23;20068;-49
2023/11/24 04:28:19;;;;;;;0.10;0.00;;;3.60;87.00;;;;;;25468759;23;20005;-59
2023/11/24 04:38:22;;;;;;;0.15;0.00;;;3.60;85.60;;;;;;25468352;23;20072;-51
2023/11/24 04:48:23;;;;;;;0.30;0.00;;;3.90;84.60;;;;;;25471130;23;20166;-49
2023/11/24 04:58:25;;;;;;;0.50;0.10;;;3.80;84.60;;;;;;25477352;23;20002;-50
2023/11/24 05:08:27;;;;;;;0.30;0.10;;;3.80;84.10;;;;;;25476657;23;20012;-56
2023/11/24 05:18:28;;;;;;;0.70;0.10;;;3.90;82.90;;;;;;25474261;23;20006;-47
2023/11/24 05:28:30;;;;;;;0.10;0.00;;;3.80;85.60;;;;;;25476089;23;20009;-53
2023/11/24 05:38:32;;;;;;;0.95;0.10;;;4.00;84.40;;;;;;25473790;23;20092;-49
2023/11/24 05:48:34;;;;;;;0.28;0.00;;;4.30;85.50;;;;;;25474062;23;20012;-59
2023/11/24 05:58:36;;;;;;;0.63;0.10;;;4.30;85.60;;;;;;25474724;23;20001;-50
2023/11/24 06:08:38;;;;;;;1.48;0.10;;;4.30;87.40;;;;;;25474429;23;20013;-51
2023/11/24 06:18:39;;;;;;;3.13;0.10;;;5.10;77.40;;;;;;25474094;23;20016;-51
2023/11/24 06:28:41;;;;;;;0.10;0.03;;;5.30;81.90;;;;;;25472571;23;20449;-48
2023/11/24 06:38:43;;;;;;;0.10;0.00;;;4.60;85.70;;;;;;25472873;23;20014;-58
2023/11/24 06:48:45;;;;;;;1.27;0.20;;;4.80;84.70;;;;;;25472896;23;20002;-50
2023/11/24 06:58:47;;;;;;;0.22;0.10;;;4.90;83.20;;;;;;25472831;23;20028;-59
2023/11/24 07:08:52;;;;;;;0.85;0.03;;;4.70;85.60;;;;;;25472156;23;20441;-59
2023/11/24 07:18:58;;;;;;;0.65;0.10;;;5.40;83.00;;;;;;25471059;23;20445;-59
2023/11/24 07:29:02;;;;;;;0.20;0.10;;;6.50;84.20;;;;;;25471138;23;20076;-59
2023/11/24 07:39:04;;;;;;;1.95;0.20;;;6.70;86.80;;;;;;25469032;23;20014;-58
2023/11/24 07:49:05;;;;;;;0.38;0.10;;;7.30;81.20;;;;;;25471258;23;20002;-59
2023/11/24 07:59:09;;;;;;;0.63;0.13;;;7.80;81.20;;;;;;25469682;23;20012;-53
2023/11/24 08:09:12;;;;;;;2.55;0.20;;;8.40;76.00;;;;;;25470835;23;20006;-59
2023/11/24 08:19:15;;;;;;;0.75;0.10;;;8.60;79.60;;;;;;25470574;23;20006;-58
2023/11/24 08:29:18;;;;;;;0.63;0.15;;;12.60;69.70;;;;;;25476902;23;20009;-52
2023/11/24 08:39:21;;;;;;;0.43;0.10;;;14.00;61.40;;;;;;25477538;23;20018;-49
2023/11/24 08:49:23;;;;;;;0.60;0.10;;;14.30;62.70;;;;;;25477773;23;20516;-49
2023/11/24 08:59:24;;;;;;;1.05;0.30;;;14.50;60.30;;;;;;25477108;23;20005;-58
2023/11/24 09:09:28;;;;;;;2.13;0.40;;;13.20;68.60;;;;;;25477043;23;20001;-58
2023/11/24 09:19:31;;;;;;;1.73;0.10;;;12.30;70.50;;;;;;25475950;23;20012;-58
2023/11/24 09:29:33;;;;;;;0.22;0.10;;;12.70;67.20;;;;;;25475638;23;20303;-58
2023/11/24 09:39:35;;;;;;;1.58;0.43;;;12.50;65.00;;;;;;25474885;23;20010;-53
2023/11/24 09:49:40;;;;;;;2.25;0.40;;;12.20;71.80;;;;;;25475289;23;20001;-51
2023/11/24 09:59:42;;;;;;;0.90;0.50;;;11.70;73.70;;;;;;25474234;23;20522;-50
2023/11/24 10:09:48;;;;;;;1.30;0.68;;;12.30;75.60;;;;;;25474432;23;20002;-53
2023/11/24 10:19:52;;;;;;;1.05;0.80;;;12.50;74.90;;;;;;25514443;23;20060;-53
2023/11/24 10:29:54;;;;;;;2.42;1.00;;;12.80;76.10;;;;;;25473134;23;20005;-50
2023/11/24 10:40:00;;;;;;;1.33;0.90;;;12.30;76.10;;;;;;25471413;23;20311;-52
2023/11/24 10:50:09;;;;;;;3.42;0.93;;;12.00;78.30;;;;;;25513751;23;20333;-52
2023/11/24 11:00:14;;;;;;;2.70;0.90;;;12.30;78.00;;;;;;25513498;23;20369;-49
2023/11/24 11:10:25;;;;;;;2.00;1.30;;;13.40;72.90;;;;;;25472093;23;20010;-53
2023/11/24 11:20:30;;;;;;;1.10;0.80;;;14.20;75.10;;;;;;25512822;23;20449;-58
2023/11/24 11:30:32;;;;;;;3.40;1.17;;;14.20;70.30;;;;;;25471516;23;19997;-51
2023/11/24 11:40:35;;;;;;;3.60;2.08;;;14.70;73.50;;;;;;25468858;23;20097;-52
2023/11/24 11:51:02;;;;;;;4.22;1.88;;;14.70;69.50;;;;;;25469503;23;20079;-50
2023/11/24 12:01:06;;;;;;;4.43;2.05;;;14.50;70.40;;;;;;25221777;23;20011;-59
2023/11/24 12:11:10;;;;;;;8.07;4.40;;;14.80;72.10;;;;;;25225247;23;20026;-50
2023/11/24 12:21:12;;;;;;;2.00;1.48;;;14.80;74.00;;;;;;25223488;23;20070;-52
2023/11/24 12:31:14;;;;;;;5.68;3.90;;;14.70;70.80;;;;;;25272190;23;20013;-53
2023/11/24 12:41:17;;;;;;;6.70;4.38;;;14.40;72.60;;;;;;25478224;23;20025;-51
2023/11/24 12:51:19;;;;;;;3.55;2.60;;;13.90;78.60;;;;;;25477254;23;20519;-49
2023/11/24 13:01:20;;;;;;;7.30;4.30;;;13.40;76.90;;;;;;25476630;23;20064;-57
2023/11/24 13:11:24;;;;;;;8.50;4.88;;;12.20;80.00;;;;;;25476756;23;20002;-53
2023/11/24 13:21:27;;;;;;;10.38;5.40;;;11.20;82.00;;;;;;25476306;23;20005;-52
2023/11/24 13:31:29;;;;;;;10.23;5.40;;;10.50;85.90;;;;;;25475797;23;20480;-48
2023/11/24 13:41:30;;;;;;;8.13;3.53;;;9.90;85.80;;;;;;25475812;23;20013;-58
2023/11/24 13:51:32;;;;;;;5.72;3.03;;;9.90;85.50;;;;;;25475198;23;20006;-52
2023/11/24 14:01:34;;;;;;;3.70;1.80;;;10.00;82.70;;;;;;25474574;23;20005;-53
2023/11/24 14:11:36;;;;;;;3.00;1.50;;;9.90;77.60;;;;;;25474689;23;20075;-59
2023/11/24 14:21:38;;;;;;;2.83;1.40;;;10.00;75.20;;;;;;25473754;23;20013;-53
2023/11/24 14:31:40;;;;;;;3.10;1.42;;;9.60;75.60;;;;;;25472262;23;20009;-60
2023/11/24 14:41:42;;;;;;;3.33;2.10;;;9.20;74.90;;;;;;25473563;23;20009;-51
2023/11/24 14:51:47;;;;;;;3.67;0.73;;;8.90;77.30;;;;;;25470049;23;20052;-49
2023/11/24 15:02:07;;;;;;;1.65;0.80;;;8.60;77.70;;;;;;25513378;23;20008;-52
2023/11/24 15:12:09;;;;;;;1.60;0.80;;;7.60;80.80;;;;;;25513187;23;20010;-50
2023/11/24 15:22:16;;;;;;;3.55;1.30;;;6.90;80.50;;;;;;25471984;23;20503;-47
2023/11/24 15:32:21;;;;;;;1.83;0.80;;;6.50;80.60;;;;;;25512366;23;20013;-53
2023/11/24 15:42:23;;;;;;;3.40;0.77;;;6.20;80.80;;;;;;25471282;23;20021;-57
2023/11/24 15:52:27;;;;;;;2.25;0.77;;;6.10;80.90;;;;;;25471235;23;20012;-48
2023/11/24 16:02:32;;;;;;;2.10;0.90;;;5.70;79.70;;;;;;25470772;23;20006;-57
2023/11/24 16:12:34;;;;;;;1.20;0.50;;;5.50;80.30;;;;;;25470703;23;20009;-59
2023/11/24 16:22:36;;;;;;;1.33;0.65;;;5.10;79.90;;;;;;25470843;23;20006;-59
2023/11/24 16:32:38;;;;;;;1.90;0.85;;;4.80;80.60;;;;;;25470189;23;20009;-60
2023/11/24 16:42:40;;;;;;;1.23;0.77;;;4.70;80.30;;;;;;25468882;23;20080;-55
2023/11/24 16:52:43;;;;;;;1.50;0.70;;;4.90;82.10;;;;;;25477679;23;20010;-48
2023/11/24 17:02:50;;;;;;;1.00;0.50;;;4.30;83.30;;;;;;25477292;23;20028;-50
2023/11/24 17:12:55;;;;;;;1.73;0.60;;;3.70;85.20;;;;;;25517816;23;20080;-59
2023/11/24 17:22:57;;;;;;;2.92;1.00;;;3.50;82.90;;;;;;25476372;23;20011;-46
2023/11/24 17:32:59;;;;;;;1.88;1.05;;;3.40;84.60;;;;;;25475880;23;20005;-59
2023/11/24 17:43:02;;;;;;;1.77;0.90;;;2.90;86.80;;;;;;25475622;23;20445;-59
2023/11/24 17:53:03;;;;;;;2.15;0.90;;;2.70;88.60;;;;;;25475073;23;20016;-59
2023/11/24 18:03:07;;;;;;;1.25;0.80;;;2.90;85.60;;;;;;25473922;23;20001;-56
2023/11/24 18:13:12;;;;;;;2.08;1.13;;;2.80;87.40;;;;;;25474655;23;20377;-60
2023/11/24 18:23:14;;;;;;;2.90;1.13;;;2.70;87.80;;;;;;25474011;23;20006;-59
2023/11/24 18:33:18;;;;;;;1.92;0.90;;;2.90;86.70;;;;;;25473666;23;20442;-52
2023/11/24 18:43:22;;;;;;;2.38;1.00;;;2.80;87.40;;;;;;25473163;23;20018;-59
2023/11/24 18:53:26;;;;;;;1.60;0.70;;;2.60;85.70;;;;;;25472865;23;20072;-59
2023/11/24 19:03:29;;;;;;;1.42;0.70;;;2.60;84.90;;;;;;25472357;23;20005;-59
2023/11/24 19:13:33;;;;;;;2.40;0.73;;;2.90;82.40;;;;;;25470492;23;20036;-59
2023/11/24 19:23:35;;;;;;;1.33;0.68;;;4.10;79.30;;;;;;25471774;23;20008;-50
2023/11/24 19:33:37;;;;;;;1.88;0.70;;;4.40;79.50;;;;;;25469646;23;20009;-50
2023/11/24 19:43:39;;;;;;;1.05;0.52;;;4.70;79.00;;;;;;25471283;23;20088;-59
2023/11/24 19:53:40;;;;;;;2.17;0.80;;;4.40;80.40;;;;;;25469464;23;20009;-58
2023/11/24 20:03:42;;;;;;;1.25;0.80;;;4.20;82.00;;;;;;25470712;23;20005;-59
2023/11/24 20:13:44;;;;;;;2.67;1.50;;;4.10;82.80;;;;;;25471082;23;20033;-54
2023/11/24 20:23:46;;;;;;;3.13;1.40;;;4.00;85.40;;;;;;25476051;23;20001;-50
2023/11/24 20:33:51;;;;;;;2.92;1.73;;;3.50;88.20;;;;;;25478140;23;20010;-48
2023/11/24 20:43:56;;;;;;;3.60;1.77;;;3.20;90.40;;;;;;25472739;23;20338;-59
2023/11/24 20:53:58;;;;;;;3.67;1.30;;;3.10;90.50;;;;;;25469691;23;20009;-52
2023/11/24 21:04:04;;;;;;;4.05;0.90;;;2.80;90.60;;;;;;25467882;23;20013;-56
2023/11/24 21:14:07;;;;;;;1.27;0.50;;;2.70;90.10;;;;;;25508840;23;20006;-51
2023/11/24 21:24:11;;;;;;;2.80;0.40;;;2.70;87.20;;;;;;25469123;23;20012;-49
2023/11/24 21:34:14;;;;;;;0.65;0.20;;;2.50;84.60;;;;;;25468479;23;20020;-51
2023/11/24 21:44:18;;;;;;;2.05;0.20;;;2.50;84.20;;;;;;25390763;23;1351157;-52
2023/11/24 21:54:22;;;;;;;0.32;0.20;;;2.30;83.00;;;;;;25473042;23;20009;-45
2023/11/24 22:04:24;;;;;;;0.52;0.20;;;2.30;81.00;;;;;;25472839;23;20064;-59
2023/11/24 22:14:26;;;;;;;1.25;0.40;;;2.90;78.10;;;;;;25472642;23;20433;-57
2023/11/24 22:24:29;;;;;;;1.35;0.38;;;2.60;80.10;;;;;;25316132;23;20014;-49
2023/11/24 22:34:33;;;;;;;1.15;0.30;;;2.30;80.80;;;;;;25461514;23;20009;-55
2023/11/24 22:44:42;;;;;;;0.20;0.10;;;2.20;81.60;;;;;;25436944;23;20060;-59
2023/11/24 22:54:44;;;;;;;2.42;0.77;;;2.20;81.50;;;;;;25417278;23;20014;-59
2023/11/24 23:04:50;;;;;;;0.65;0.20;;;1.80;81.90;;;;;;25446483;23;20381;-59
2023/11/24 23:14:54;;;;;;;1.77;0.20;;;1.50;83.10;;;;;;25513104;23;20005;-59
2023/11/24 23:24:56;;;;;;;2.10;0.10;;;1.50;83.90;;;;;;25470341;23;20001;-55
2023/11/24 23:34:58;;;;;;;0.40;0.08;;;1.50;85.80;;;;;;25471221;23;20496;-59
2023/11/24 23:45:00;;;;;;;0.35;0.22;;;1.00;88.50;;;;;;25471331;23;20024;-59
2023/11/24 23:55:03;;;;;;;0.20;0.00;;;0.60;90.50;;;;;;25470621;23;20014;-59
